Catlettsburg, KY (41129)

8:42 AM EDT en Junio 30, 2015 (GMT -0400)
Kenova | | Change Station
CLOSE
Current Station
Estación meteorológica personal
Location: Kenova, WV
Altura: 554 ft
Estaciones meteorológicas cercanas

Alt 554 ft 38.40 °N, 82.57 °W | Updated 53 minutes ago

Nublado
Nublado
70.3 ° F
Sensación térmica 70.3 ° F
N
3.1
Viento Variable Viento desde SSE

Hoy
Alta -- | Baja -- ° F
--% Posibilidad de precipitaciones
Ayer
Alta -- | Baja -- ° F
Precip. -- pul
6:09 AM 8:58 PM
Gibosa creciente, 97% visible
Presión 29.90 pul
Visibilidad 9.0 Millas
Nubes Nublado 800 ft
Punto de rocío 68 ° F
Humedad 91%
Precipitaciones pul
Espesor de la nieve No disponible.
UV 0 de una escala de 12
Polen 3.40 de una escala de 12
Calidad del aire No disponible.
Flu Activity No Activity
METAR KHTS 301151Z 21006KT 9SM OVC008 19/19 A2991 RMK AO2 CIG 006V011 SLP123 70020 T01940189 10194 20183 53012

More Conditions Fewer Conditions

Presión 29.90 pul
Visibilidad 9.0 Millas
Nubes Nublado 800 ft
Punto de rocío 68 ° F
Humedad 91%
Precipitaciones pul
Espesor de la nieve No disponible.
UV 0 de una escala de 12
Polen 3.40 de una escala de 12
Calidad del aire No disponible.
Flu Activity No Activity
METAR KHTS 301151Z 21006KT 9SM OVC008 19/19 A2991 RMK AO2 CIG 006V011 SLP123 70020 T01940189 10194 20183 53012

More Conditions Fewer Conditions

10-Day Weather Forecast

×

Almanac

Astronomía

Jun. 30, 2015 Salida Puesta
Hora real
Crepúsculo civil
Crepúsculo náutico
Crepúsculo astronómico
Luna
Horas de luz
Horas de luz
Tomorrow will be .
, % of the Moon is Illuminated

Extremos de hoy

Máximos del estado Bajos del estado

Community

WunderPhotos

Upload Photos

1,833,986 ¡fotos cargadas!

WunderBlogs® & News

Nearby

Calidad del aire

  Calidad del aire Índice AQ Contaminante
Not available.

Grosos de nieve

Estación Profundido Altura

Actividad de terremotos

Ciudad Distance Mag. Tiempo y dato
Magnitud mínima muestra es 2,5.

Temperaturas de aguas costeras

Lugar Temperatura

Stations

Estaciones meteorológicas cercanas

Ubicación de la estación Temp. Vientos helados Punto de rocío Humedad Viento Precip. Alt Actualizado Tipo